TimeCST,TemperatureF,Dew PointF,Humidity,Sea Level PressureIn,VisibilityMPH,Wind Direction,Wind SpeedMPH,Gust SpeedMPH,PrecipitationIn,Events,Conditions,WindDirDegrees,DateUTC
12:20 AM,8.1,-0.9,67,30.30,10.0,North,24.2,36.8,N/A,,Scattered Clouds,360,2014-01-21 06:20:00
12:46 AM,8.1,-0.0,70,30.31,10.0,North,20.7,31.1,N/A,,Mostly Cloudy,350,2014-01-21 06:46:00
12:53 AM,7.0,-0.0,73,30.36,8.0,North,19.6,34.5,N/A,,Mostly Cloudy,350,2014-01-21 06:53:00
1:53 AM,5.0,-2.9,70,30.40,10.0,NNW,16.1,27.6,N/A,,Partly Cloudy,340,2014-01-21 07:53:00
2:53 AM,3.0,-4.0,73,30.43,10.0,North,13.8,27.6,N/A,,Partly Cloudy,350,2014-01-21 08:53:00
3:53 AM,1.9,-7.1,66,30.46,10.0,North,17.3,28.8,N/A,,Clear,350,2014-01-21 09:53:00
4:53 AM,-0.0,-8.0,69,30.47,10.0,NNW,13.8,21.9,N/A,,Clear,340,2014-01-21 10:53:00
5:53 AM,-0.9,-9.0,69,30.49,10.0,NNW,12.7,-,N/A,,Clear,340,2014-01-21 11:53:00
6:53 AM,-2.0,-9.0,72,30.49,10.0,North,10.4,-,N/A,,Clear,350,2014-01-21 12:53:00
7:53 AM,-2.9,-9.9,72,30.50,10.0,NNW,6.9,-,N/A,,Clear,330,2014-01-21 13:53:00
8:53 AM,-0.9,-9.0,69,30.51,10.0,NNW,9.2,-,N/A,,Clear,330,2014-01-21 14:53:00
9:53 AM,1.0,-9.0,63,30.51,10.0,NNW,3.5,-,N/A,,Clear,340,2014-01-21 15:53:00
10:53 AM,3.0,-7.1,63,30.51,10.0,Variable,5.8,-,N/A,,Clear,0,2014-01-21 16:53:00
11:53 AM,3.9,-6.0,64,30.46,10.0,Calm,Calm,-,N/A,,Clear,0,2014-01-21 17:53:00
12:53 PM,6.1,-6.0,58,30.40,10.0,Variable,5.8,-,N/A,,Mostly Cloudy,0,2014-01-21 18:53:00
1:53 PM,9.0,-5.1,53,30.37,10.0,WSW,8.1,-,N/A,,Partly Cloudy,240,2014-01-21 19:53:00
2:53 PM,10.9,-4.0,51,30.30,10.0,SSW,3.5,-,N/A,,Clear,200,2014-01-21 20:53:00
3:53 PM,12.0,-4.0,49,30.28,10.0,SE,6.9,-,N/A,,Overcast,140,2014-01-21 21:53:00
4:53 PM,12.0,-2.9,51,30.27,10.0,South,9.2,-,N/A,,Overcast,170,2014-01-21 22:53:00
5:53 PM,12.0,-2.9,51,30.22,10.0,SSE,10.4,-,N/A,,Overcast,160,2014-01-21 23:53:00
6:53 PM,12.9,-0.9,54,30.24,10.0,South,8.1,-,N/A,,Overcast,170,2014-01-22 00:53:00
7:53 PM,14.0,-2.0,49,30.24,10.0,South,6.9,-,N/A,,Overcast,180,2014-01-22 01:53:00
8:53 PM,14.0,-0.0,54,30.21,10.0,South,9.2,-,N/A,,Overcast,170,2014-01-22 02:53:00
9:53 PM,15.1,-0.0,51,30.18,10.0,South,10.4,-,N/A,,Overcast,180,2014-01-22 03:53:00
10:53 PM,16.0,-0.0,49,30.16,10.0,South,10.4,-,N/A,,Overcast,180,2014-01-22 04:53:00
11:53 PM,17.1,1.9,52,30.13,10.0,South,10.4,-,N/A,,Overcast,190,2014-01-22 05:53:00